• Join FlightAware (Why Join?)
  • Login
  • US Flag 
01:51AM EDT


 

Airport Tracker/Info


-or-


 

Live Flight TrackerFlight Track Log ✈ AFL1004 ✈ 19-Mar-2014 ✈ UUEE / SVO - UMKK / KGD

Flight Track Log - Related Links

Times and Time Zones

All times are in EDT time to prevent confusion due to time zone crossing. See the AFL1004 flight status page for this flight to view local times or setup timezone preferences in your user account.

Time Position Orientation Groundspeed Altitude Reporting Facility
EDT Latitude Longitude Course Direction KTS MPH feet Rate Location/Type
10:50AM 55.9615 36.7205 271° West  Level Estimated
10:51AM 55.9614 36.5648 270° West  Level Estimated
10:52AM 55.9612 36.4091 270° West  Level Estimated
10:53AM 55.9607 36.2535 270° West  Level Estimated
10:54AM 55.9600 36.0978 270° West  Level Estimated
10:55AM 55.9592 35.9421 270° West  Level Estimated
10:56AM 55.9582 35.7865 269° West  Level Estimated
10:57AM 55.9569 35.6308 269° West  Level Estimated
10:58AM 55.9555 35.4752 269° West  Level Estimated
10:59AM 55.9538 35.3196 269° West  Level Estimated
11:00AM 55.9520 35.1640 269° West  Level Estimated
11:01AM 55.9500 35.0084 269° West  Level Estimated
11:02AM 55.9478 34.8528 269° West  Level Estimated
11:03AM 55.9453 34.6972 268° West  Level Estimated
11:04AM 55.9427 34.5417 268° West  Level Estimated
11:05AM 55.9399 34.3862 268° West  Level Estimated
11:06AM 55.9369 34.2307 268° West  Level Estimated
11:07AM 55.9337 34.0752 268° West  Level Estimated
11:08AM 55.9306 33.9327 268° West  Level Estimated
11:09AM 55.9273 33.7903 268° West  Level Estimated
11:10AM 55.9239 33.6478 268° West  Level Estimated
11:11AM 55.9203 33.5054 267° West  Level Estimated
11:12AM 55.9165 33.3630 267° West  Level Estimated
11:13AM 55.9126 33.2207 267° West  Level Estimated
11:14AM 55.9085 33.0784 267° West  Level Estimated
11:15AM 55.9042 32.9361 267° West  Level Estimated
11:16AM 55.8998 32.7938 267° West  Level Estimated
11:17AM 55.8952 32.6516 267° West  Level Estimated
11:18AM 55.8905 32.5093 267° West  Level Estimated
11:19AM 55.8856 32.3672 267° West  Level Estimated
11:19AM 55.7393 33.0596 262° West 383 441 34,000  Level FlightAware ADS-B (EVDA / DGP)
11:24AM 55.5773 30.7985 266° West 380 437 34,000  Level FlightAware ADS-B (EVDA / DGP)
11:25AM 55.5689 30.6134 265° West 382 440 34,000  Level FlightAware ADS-B (EVDA / DGP)
11:26AM 55.5602 30.4347 265° West 383 441 34,000  Level FlightAware ADS-B (EVDA / DGP)
11:27AM 55.5508 30.2404 265° West 383 441 34,000  Level FlightAware ADS-B (EVDA / DGP)
11:28AM 55.5415 30.0531 265° West 385 443 34,000  Level FlightAware ADS-B (EVDA / DGP)
11:29AM 55.5317 29.8673 265° West 384 442 34,000  Level FlightAware ADS-B (EVDA / DGP)
11:30AM 55.5218 29.6813 265° West 384 442 34,000  Level FlightAware ADS-B (EVDA / DGP)
11:31AM 55.5115 29.4957 265° West 384 442 34,000  Level FlightAware ADS-B (EVDA / DGP)
11:32AM 55.5010 29.3070 264° West 384 442 34,000  Level FlightAware ADS-B (EVDA / DGP)
11:33AM 55.4905 29.1271 264° West 386 444 34,000  Level FlightAware ADS-B (EVDA / DGP)
11:34AM 55.4789 28.9333 264° West 386 444 34,000  Level FlightAware ADS-B (EVDA / DGP)
11:35AM 55.4675 28.7475 264° West 386 444 34,000  Level FlightAware ADS-B (EVDA / DGP)
11:36AM 55.4557 28.5596 264° West 385 443 34,000  Level FlightAware ADS-B (EVDA / DGP)
11:37AM 55.4492 28.4590 263° West 385 443 34,000  Level FlightAware ADS-B (EVDA / DGP)
11:38AM 55.4314 28.1882 263° West 383 441 34,000  Level FlightAware ADS-B (EVDA / DGP)
11:39AM 55.4192 28.0067 263° West 383 441 34,000  Level FlightAware ADS-B (EVDA / DGP)
11:40AM 55.4071 27.8300 263° West 381 438 34,000  Level FlightAware ADS-B (EVDA / DGP)
11:41AM 55.3935 27.6364 263° West 382 440 34,000  Level FlightAware ADS-B (EVDA / DGP)
11:42AM 55.3801 27.4501 263° West 385 443 34,000  Level FlightAware ADS-B (EVDA / DGP)
11:43AM 55.3663 27.2633 263° West 387 445 34,000  Level FlightAware ADS-B (EVDA / DGP)
11:44AM 55.3523 27.0758 262° West 390 449 34,000  Level FlightAware ADS-B (EVDA / DGP)
11:45AM 55.3382 26.8919 262° West 391 450 34,000  Level FlightAware ADS-B (EVDA / DGP)
11:46AM 55.3235 26.7048 262° West 394 453 34,000  Level FlightAware ADS-B (EVDA / DGP)
11:47AM 55.3082 26.5138 262° West 396 456 34,000  Level FlightAware ADS-B (EVDA / DGP)
11:48AM 55.2924 26.3228 262° West 396 456 34,000  Level FlightAware ADS-B (EVDA / DGP)
11:48AM 55.2819 26.1965 262° West 396 456 34,000  Level FlightAware ADS-B (EPSY / SZY)
11:49AM 55.2715 26.0723 262° West 395 455 34,000  Level FlightAware ADS-B (EVDA / DGP)
11:50AM 55.2610 25.9460 262° West 394 453 34,000  Level FlightAware ADS-B (EPSY / SZY)
11:50AM 55.2527 25.8487 261° West 393 452 34,000  Level FlightAware ADS-B (EPSY / SZY)
11:51AM 55.2441 25.7506 261° West 392 451 34,000  Level FlightAware ADS-B (EVDA / DGP)
11:51AM 55.2340 25.6363 261° West 391 450 34,000  Level FlightAware ADS-B (EPSY / SZY)
11:52AM 55.2232 25.5154 261° West 390 449 34,000  Level FlightAware ADS-B (EVDA / DGP)
11:53AM 55.2120 25.3900 261° West 391 450 34,000  Level FlightAware ADS-B (EPSY / SZY)
11:53AM 55.2030 25.2921 261° West 392 451 34,000  Level FlightAware ADS-B (EPSY / SZY)
11:54AM 55.1942 25.1971 261° West 392 451 34,000  Level FlightAware ADS-B (EPSY / SZY)
11:54AM 55.1858 25.1063 261° West 392 451 34,000  Level FlightAware ADS-B (EPSY / SZY)
11:55AM 55.1765 25.0063 261° West 393 452 34,000  Level FlightAware ADS-B (EPSY / SZY)
11:55AM 55.1655 24.8896 261° West 392 451 34,000  Level FlightAware ADS-B (EPSY / SZY)
11:56AM 55.1563 24.7935 261° West 392 451 34,000  Level FlightAware ADS-B (EPSY / SZY)
11:56AM 55.1466 24.6918 260° West 391 450 34,000  Level FlightAware ADS-B (EPSY / SZY)
11:57AM 55.1374 24.5969 260° West 390 449 34,000  Level FlightAware ADS-B (EPSY / SZY)
11:58AM 55.1244 24.4622 260° West 389 448 34,000  Level FlightAware ADS-B (EPSY / SZY)
11:58AM 55.1152 24.3696 260° West 388 447 34,000  Level FlightAware ADS-B (EPSY / SZY)
11:59AM 55.1059 24.2772 260° West 387 445 34,000  Level FlightAware ADS-B (EPSY / SZY)
11:59AM 55.0936 24.1539 260° West 385 443 34,000  Level FlightAware ADS-B (EPSY / SZY)
12:00PM 55.0803 24.0219 260° West 385 443 34,000  Level FlightAware ADS-B (EVDA / DGP)
12:01PM 55.0679 23.9023 260° West 386 444 34,000  Level FlightAware ADS-B (EPSY / SZY)
12:01PM 55.0518 23.7482 260° West 388 447 34,000  Level FlightAware ADS-B (EPSY / SZY)
12:02PM 55.0421 23.6564 260° West 390 449 34,000 -120 Level FlightAware ADS-B (EPSY / SZY)
12:03PM 55.0285 23.5288 260° West 389 448 33,900 -540 Descending FlightAware ADS-B (EPSY / SZY)
12:03PM 55.0186 23.4380 259° West 372 428 33,400 -1,500 Descending FlightAware ADS-B (EPSY / SZY)
12:04PM 55.0083 23.3410 260° West 377 434 32,300 -2,100 Descending FlightAware ADS-B (EVDA / DGP)
12:04PM 54.9960 23.2274 259° West 370 426 30,900 -2,220 Descending FlightAware ADS-B (EPSY / SZY)
12:05PM 54.9840 23.1182 259° West 365 420 29,500 -2,460 Descending FlightAware ADS-B (EVDA / DGP)
12:06PM 54.9728 23.0174 259° West 363 418 28,000 -2,700 Descending FlightAware ADS-B (EPSY / SZY)
12:06PM 54.9633 22.9330 259° West 358 412 26,700 -2,520 Descending FlightAware ADS-B (EPSY / SZY)
12:07PM 54.9537 22.8473 259° West 353 406 25,500 -2,400 Descending FlightAware ADS-B (EPSY / SZY)
12:07PM 54.9454 22.7660 265° West 344 396 24,300 -2,040 Descending FlightAware ADS-B (EPSY / SZY)
12:08PM 54.9455 22.6817 271° West 329 379 23,400 -1,860 Descending FlightAware ADS-B (EPSY / SZY)
12:08PM 54.9463 22.6036 271° West 324 373 22,400 -1,980 Descending FlightAware ADS-B (EPSY / SZY)
12:09PM 54.9472 22.5253 271° West 320 368 21,400 -1,920 Descending FlightAware ADS-B (EPSY / SZY)
12:09PM 54.9480 22.4477 271° West 316 364 20,500 -1,920 Descending FlightAware ADS-B (EPSY / SZY)
12:10PM 54.9487 22.3674 271° West 313 360 19,400 -1,800 Descending FlightAware ADS-B (EVDA / DGP)
12:10PM 54.9496 22.2732 271° West 310 357 18,400 -1,740 Descending FlightAware ADS-B (EPSY / SZY)
12:11PM 54.9503 22.1933 271° West 308 354 17,400 -1,800 Descending FlightAware ADS-B (EPSY / SZY)
12:11PM 54.9509 22.1175 271° West 307 353 16,600 -1,800 Descending FlightAware ADS-B (EPSY / SZY)
12:12PM 54.9516 22.0184 271° West 305 351 15,300 -1,860 Descending FlightAware ADS-B (EPSY / SZY)
12:13PM 54.9521 21.9403 271° West 304 350 14,400 -1,740 Descending FlightAware ADS-B (EPSY / SZY)
12:13PM 54.9526 21.8394 271° West 301 346 13,200 -1,800 Descending FlightAware ADS-B (EPSY / SZY)
12:14PM 54.9529 21.7676 271° West 298 343 12,300 -1,800 Descending FlightAware ADS-B (EPSY / SZY)
12:14PM 54.9533 21.6631 270° West 291 335 11,000 -1,680 Descending FlightAware ADS-B (EPSY / SZY)
12:15PM 54.9536 21.5930 270° West 283 326 10,300 -1,140 Descending FlightAware ADS-B (EPSY / SZY)
12:15PM 54.9538 21.5291 270° West 261 300 9,900 -1,080 Descending FlightAware ADS-B (EPSY / SZY)
12:16PM 54.9538 21.4840 270° West 253 291 9,400 -1,440 Descending FlightAware ADS-B (EPSY / SZY)
12:16PM 54.9539 21.4422 270° West 251 289 8,900 -1,500 Descending FlightAware ADS-B (EPSY / SZY)
12:17PM 54.9540 21.4041 270° West 246 283 8,400 -1,680 Descending FlightAware ADS-B (EPSY / SZY)
12:17PM 54.9540 21.3633 270° West 244 281 7,800 -1,860 Descending FlightAware ADS-B (EPSY / SZY)
12:17PM 54.9540 21.3338 270° West 244 281 7,300 -1,620 Descending FlightAware ADS-B (EPSY / SZY)
12:18PM 54.9541 21.2860 270° West 240 276 6,700 -1,440 Descending FlightAware ADS-B (EPSY / SZY)
12:18PM 54.9541 21.1970 270° West 230 265 5,600 -1,500 Descending FlightAware ADS-B (EPSY / SZY)
12:21PM 54.9224 20.8937 260° West  Level Estimated